Time;durP1;ratioP1;P1;durP2;ratioP2;P2;SDS_P1;SDS_P2;PMS_P1;PMS_P2;Temp;Humidity;BMP_temperature;BMP_pressure;BME280_temperature;BME280_humidity;BME280_pressure;Samples;Min_cycle;Max_cycle;Signal;HPM_P1;HPM_P2
2023/01/21 00:00:43;;;;;;;3.42;2.75;;;15.70;1.00;;;;;;4992291;28;20529;-40
2023/01/21 00:03:11;;;;;;;7.57;3.28;;;15.60;1.00;;;;;;4992250;28;20490;-40
2023/01/21 00:05:38;;;;;;;4.57;2.72;;;15.60;1.00;;;;;;4992424;28;20101;-40
2023/01/21 00:08:05;;;;;;;5.68;3.03;;;15.60;1.00;;;;;;4992398;28;20042;-40
2023/01/21 00:10:32;;;;;;;5.68;3.00;;;15.50;1.00;;;;;;4992497;28;20046;-39
2023/01/21 00:12:59;;;;;;;6.20;2.90;;;15.50;1.00;;;;;;4992289;28;20046;-40
2023/01/21 00:15:26;;;;;;;7.35;2.90;;;15.40;1.00;;;;;;4992077;28;20117;-40
2023/01/21 00:17:53;;;;;;;6.68;3.08;;;15.40;1.00;;;;;;4992392;28;20515;-40
2023/01/21 00:20:20;;;;;;;4.25;2.65;;;15.40;1.00;;;;;;5014757;23;20108;-40
2023/01/21 00:22:47;;;;;;;6.35;3.13;;;15.40;1.00;;;;;;5011185;28;20057;-40
2023/01/21 00:25:14;;;;;;;4.80;3.55;;;15.30;1.00;;;;;;5012087;28;20061;-40
2023/01/21 00:27:40;;;;;;;5.97;3.00;;;15.30;1.00;;;;;;5012010;28;20478;-40
2023/01/21 00:30:09;;;;;;;6.50;3.10;;;15.30;1.00;;;;;;5010836;28;20077;-39
2023/01/21 00:32:36;;;;;;;5.70;2.90;;;15.20;1.00;;;;;;5010715;28;20054;-40
2023/01/21 00:35:04;;;;;;;4.47;2.65;;;15.20;1.00;;;;;;5012091;28;20038;-39
2023/01/21 00:37:31;;;;;;;5.20;3.28;;;15.20;1.00;;;;;;5011927;28;20042;-40
2023/01/21 00:39:58;;;;;;;6.18;3.15;;;15.20;1.00;;;;;;5011899;28;20037;-40
2023/01/21 00:42:26;;;;;;;5.03;3.65;;;15.10;1.00;;;;;;5011845;28;20050;-40
2023/01/21 00:44:56;;;;;;;5.57;3.10;;;15.10;1.00;;;;;;5011898;28;20071;-40
2023/01/21 00:47:23;;;;;;;7.18;3.60;;;15.10;1.00;;;;;;5011895;28;20042;-39
2023/01/21 00:49:50;;;;;;;6.20;3.63;;;15.00;1.00;;;;;;5011864;28;20050;-39
2023/01/21 00:52:17;;;;;;;5.47;3.38;;;15.00;1.00;;;;;;5011692;28;20568;-39
2023/01/21 00:54:43;;;;;;;6.88;3.78;;;15.00;1.00;;;;;;5011734;28;20406;-39
2023/01/21 00:57:11;;;;;;;6.57;3.50;;;14.90;1.00;;;;;;5011854;28;20038;-39
2023/01/21 00:59:38;;;;;;;5.80;3.42;;;14.90;1.00;;;;;;5011814;28;20404;-39
2023/01/21 01:02:05;;;;;;;6.15;3.50;;;14.90;1.00;;;;;;5011721;28;20383;-38
2023/01/21 01:04:31;;;;;;;6.28;3.53;;;14.90;1.00;;;;;;5011476;28;20049;-39
2023/01/21 01:06:58;;;;;;;5.85;3.85;;;14.80;1.00;;;;;;5011692;28;20096;-39
2023/01/21 01:09:25;;;;;;;8.80;4.10;;;14.80;1.00;;;;;;5013629;28;20055;-39
2023/01/21 01:11:52;;;;;;;5.68;3.35;;;14.80;1.00;;;;;;5015639;28;20445;-38
2023/01/21 01:14:19;;;;;;;8.80;4.35;;;14.70;1.00;;;;;;5015240;28;20049;-38
2023/01/21 01:16:46;;;;;;;7.30;3.45;;;14.70;1.00;;;;;;5015474;28;20049;-39
2023/01/21 01:19:13;;;;;;;6.60;3.90;;;14.70;1.00;;;;;;5015343;28;20044;-38
2023/01/21 01:21:39;;;;;;;5.68;3.67;;;14.70;1.00;;;;;;5015137;28;20073;-39
2023/01/21 01:24:06;;;;;;;8.50;3.58;;;14.60;1.00;;;;;;5014959;28;20038;-38
2023/01/21 01:26:36;;;;;;;6.45;3.85;;;14.60;1.00;;;;;;5015193;28;20046;-39
2023/01/21 01:29:04;;;;;;;5.72;3.30;;;14.60;1.00;;;;;;5015095;28;20042;-39
2023/01/21 01:31:31;;;;;;;6.10;3.28;;;14.60;1.00;;;;;;5015156;28;20068;-38
2023/01/21 01:33:58;;;;;;;8.15;3.58;;;14.60;1.00;;;;;;5014846;28;20050;-39
2023/01/21 01:36:25;;;;;;;7.90;3.45;;;14.60;1.00;;;;;;5015158;28;20108;-39
2023/01/21 01:38:52;;;;;;;6.28;3.50;;;14.60;1.00;;;;;;5014724;28;20528;-39
2023/01/21 01:41:26;;;;;;;4.90;3.10;;;14.70;1.00;;;;;;5014951;28;20042;-39
2023/01/21 01:44:00;;;;;;;5.00;3.00;;;14.80;1.00;;;;;;5014618;28;20042;-39
2023/01/21 01:46:30;;;;;;;7.30;3.70;;;14.80;1.00;;;;;;5014811;28;20046;-39
2023/01/21 01:49:13;;;;;;;4.85;2.95;;;14.90;1.00;;;;;;5014888;28;20046;-39
2023/01/21 01:51:46;;;;;;;5.10;2.65;;;15.00;1.00;;;;;;5014679;28;20092;-39
2023/01/21 01:54:20;;;;;;;4.57;2.60;;;15.10;1.00;;;;;;5014532;28;20096;-39
2023/01/21 01:56:50;;;;;;;5.90;2.83;;;15.20;1.00;;;;;;5014481;28;20394;-39
2023/01/21 01:59:17;;;;;;;6.00;3.00;;;15.30;1.00;;;;;;5014514;28;20505;-39
2023/01/21 02:01:44;;;;;;;5.07;3.20;;;15.40;1.00;;;;;;5014511;28;20100;-39
2023/01/21 02:04:18;;;;;;;4.90;2.75;;;15.40;1.00;;;;;;5014216;28;20038;-39
2023/01/21 02:06:47;;;;;;;4.47;2.92;;;15.50;1.00;;;;;;5013166;28;20087;-40
2023/01/21 02:09:14;;;;;;;5.20;3.05;;;15.50;1.00;;;;;;5014297;28;20084;-39
2023/01/21 02:11:41;;;;;;;4.45;2.97;;;15.50;1.00;;;;;;5014292;28;20450;-39
2023/01/21 02:14:07;;;;;;;4.57;2.75;;;15.50;1.00;;;;;;5014070;28;20125;-39
2023/01/21 02:16:58;;;;;;;6.03;3.30;;;15.60;1.00;;;;;;5014363;28;20041;-39
2023/01/21 02:20:16;;;;;;;5.32;3.08;;;15.60;1.00;;;;;;5014059;28;20104;-39
2023/01/21 02:23:13;;;;;;;5.40;3.35;;;15.60;1.00;;;;;;4934012;29;20054;-39
2023/01/21 02:26:01;;;;;;;4.65;2.63;;;15.60;1.00;;;;;;5014096;28;20506;-39
2023/01/21 02:29:07;;;;;;;4.25;2.63;;;15.50;1.00;;;;;;5014019;28;20084;-41
2023/01/21 02:32:20;;;;;;;7.38;2.83;;;15.50;1.00;;;;;;5013937;28;20486;-39
2023/01/21 02:34:52;;;;;;;4.28;2.22;;;15.50;1.00;;;;;;5013872;28;20038;-39
2023/01/21 02:37:29;;;;;;;5.13;3.10;;;15.50;1.00;;;;;;5013842;28;20046;-39
2023/01/21 02:40:16;;;;;;;5.50;3.05;;;15.50;1.00;;;;;;5013663;28;20053;-39
2023/01/21 02:43:00;;;;;;;3.80;2.75;;;15.40;1.00;;;;;;5013599;28;20050;-39
2023/01/21 02:45:41;;;;;;;;;;;15.40;1.00;;;;;;5014233;28;20096;-39
2023/01/21 02:48:18;;;;;;;4.72;2.60;;;15.40;1.00;;;;;;5013723;28;19922;-38
2023/01/21 02:50:53;;;;;;;4.60;2.60;;;15.30;1.00;;;;;;5013540;28;20112;-39
2023/01/21 02:53:28;;;;;;;4.72;3.45;;;15.30;1.00;;;;;;5013338;28;20049;-39
2023/01/21 02:56:01;;;;;;;5.85;3.70;;;15.30;1.00;;;;;;5013624;28;20049;-38
2023/01/21 02:58:33;;;;;;;4.97;3.08;;;15.20;1.00;;;;;;5013570;28;20046;-38
2023/01/21 03:01:13;;;;;;;4.90;3.10;;;15.20;1.00;;;;;;5013291;28;20450;-38
2023/01/21 03:04:18;;;;;;;4.05;2.80;;;15.20;1.00;;;;;;5013138;28;20056;-39
2023/01/21 03:07:08;;;;;;;4.40;2.60;;;15.20;1.00;;;;;;5013372;28;20490;-39
2023/01/21 03:09:36;;;;;;;5.40;3.05;;;15.10;1.00;;;;;;5013073;28;20042;-39
2023/01/21 03:12:12;;;;;;;3.92;2.72;;;15.10;1.00;;;;;;5013239;28;20042;-39
2023/01/21 03:18:02;;;;;;;4.68;2.58;;;15.10;1.00;;;;;;5013313;28;20080;-39
2023/01/21 03:20:57;;;;;;;4.07;2.65;;;15.00;1.00;;;;;;5012856;28;20038;-39
2023/01/21 03:23:29;;;;;;;4.60;3.05;;;15.00;1.00;;;;;;5012895;28;20062;-39
2023/01/21 03:25:59;;;;;;;5.55;2.65;;;14.90;1.00;;;;;;5013018;28;20046;-39
2023/01/21 03:28:29;;;;;;;6.05;2.88;;;14.90;1.00;;;;;;5013052;28;20053;-39
2023/01/21 03:31:04;;;;;;;4.50;2.85;;;14.90;1.00;;;;;;5012464;28;20058;-39
2023/01/21 03:33:36;;;;;;;4.93;2.83;;;14.90;1.00;;;;;;5012682;28;20050;-39
2023/01/21 03:36:10;;;;;;;5.78;3.10;;;14.80;1.00;;;;;;5012882;28;20049;-38
2023/01/21 03:38:43;;;;;;;4.53;2.90;;;14.80;1.00;;;;;;5012915;28;20046;-39
2023/01/21 03:41:16;;;;;;;;;;;14.80;1.00;;;;;;5013181;28;20465;-39
2023/01/21 03:43:44;;;;;;;6.30;3.33;;;14.70;1.00;;;;;;5012529;28;20008;-39
2023/01/21 03:46:35;;;;;;;6.13;3.10;;;14.70;1.00;;;;;;5012611;28;20295;-39
2023/01/21 03:49:25;;;;;;;5.80;3.20;;;14.70;1.00;;;;;;5012711;28;20042;-38
2023/01/21 03:51:54;;;;;;;5.28;2.92;;;14.80;1.00;;;;;;4972846;28;20046;-38
2023/01/21 03:54:22;;;;;;;4.20;2.70;;;14.90;1.00;;;;;;5012206;28;20038;-38
2023/01/21 03:56:49;;;;;;;7.05;3.00;;;14.90;1.00;;;;;;5012513;28;20100;-39
2023/01/21 03:59:15;;;;;;;6.32;2.72;;;15.00;1.00;;;;;;5012335;28;20050;-39
2023/01/21 04:01:42;;;;;;;7.60;2.70;;;15.10;1.00;;;;;;5012286;28;20121;-39
2023/01/21 04:04:09;;;;;;;5.20;2.65;;;15.20;1.00;;;;;;5012039;28;20069;-40
2023/01/21 04:06:36;;;;;;;4.82;2.85;;;15.30;1.00;;;;;;5012331;28;20046;-39
2023/01/21 04:09:04;;;;;;;4.90;2.72;;;15.30;1.00;;;;;;5012284;28;20559;-39
2023/01/21 04:11:31;;;;;;;5.68;3.20;;;15.40;1.00;;;;;;5011188;28;20077;-39
2023/01/21 04:13:57;;;;;;;6.82;2.90;;;15.50;1.00;;;;;;5012081;28;20100;-39
2023/01/21 04:16:24;;;;;;;4.30;2.35;;;15.50;1.00;;;;;;5012044;28;20053;-40
2023/01/21 04:18:51;;;;;;;4.90;2.67;;;15.50;1.00;;;;;;5012083;28;20046;-39
2023/01/21 04:21:18;;;;;;;4.40;2.63;;;15.60;1.00;;;;;;5012095;28;20057;-39
2023/01/21 04:23:45;;;;;;;6.60;3.05;;;15.50;1.00;;;;;;5011729;28;20128;-41
2023/01/21 04:26:12;;;;;;;3.78;2.55;;;15.60;1.00;;;;;;5012118;28;20048;-39
2023/01/21 04:28:39;;;;;;;8.25;3.58;;;15.60;1.00;;;;;;5010660;28;20140;-39
2023/01/21 04:31:05;;;;;;;4.35;3.30;;;15.60;1.00;;;;;;5011941;28;20049;-39
2023/01/21 04:33:33;;;;;;;4.20;2.22;;;15.60;1.00;;;;;;5011774;28;20061;-39
2023/01/21 04:36:00;;;;;;;4.47;2.72;;;15.60;1.00;;;;;;5011962;28;20042;-39
2023/01/21 04:38:27;;;;;;;4.70;3.03;;;15.50;1.00;;;;;;5011988;28;20470;-39
2023/01/21 04:40:54;;;;;;;3.88;2.75;;;15.50;1.00;;;;;;5011819;28;20057;-39
2023/01/21 04:43:20;;;;;;;6.72;3.25;;;15.50;1.00;;;;;;5012444;28;20464;-39
2023/01/21 04:45:48;;;;;;;5.32;3.53;;;15.50;1.00;;;;;;5015457;28;20042;-39
2023/01/21 04:48:16;;;;;;;4.80;3.10;;;15.50;1.00;;;;;;5015778;28;20042;-39
2023/01/21 04:50:44;;;;;;;4.20;2.95;;;15.40;1.00;;;;;;5015803;28;20042;-39
2023/01/21 04:53:11;;;;;;;5.35;2.90;;;15.50;1.00;;;;;;5015609;28;20045;-39
2023/01/21 04:55:38;;;;;;;6.50;3.67;;;15.40;1.00;;;;;;5015743;28;20132;-39
2023/01/21 04:58:05;;;;;;;5.63;3.13;;;15.40;1.00;;;;;;5016186;28;20399;-39
2023/01/21 05:00:31;;;;;;;6.20;3.70;;;15.40;1.00;;;;;;5015600;28;20100;-39
2023/01/21 05:02:58;;;;;;;6.57;3.70;;;15.30;1.00;;;;;;5015472;28;20046;-39
2023/01/21 05:05:25;;;;;;;6.30;3.72;;;15.30;1.00;;;;;;5015678;28;20038;-39
2023/01/21 05:07:52;;;;;;;4.32;3.13;;;15.30;1.00;;;;;;5015695;28;20363;-39
2023/01/21 05:10:20;;;;;;;6.13;3.20;;;15.20;1.00;;;;;;5015455;28;20680;-39
2023/01/21 05:12:47;;;;;;;5.63;3.28;;;15.20;1.00;;;;;;5015124;28;20053;-39
2023/01/21 05:15:14;;;;;;;4.05;3.03;;;15.20;1.00;;;;;;5015453;28;20088;-39
2023/01/21 05:17:41;;;;;;;6.00;3.33;;;15.20;1.00;;;;;;5015348;28;20556;-39
2023/01/21 05:20:08;;;;;;;5.70;3.33;;;15.10;1.00;;;;;;5015094;28;20052;-38
2023/01/21 05:22:35;;;;;;;4.35;3.05;;;15.10;1.00;;;;;;5015025;28;20374;-38
2023/01/21 05:25:02;;;;;;;5.68;3.22;;;15.00;1.00;;;;;;5015127;28;20041;-38
2023/01/21 05:27:29;;;;;;;5.00;3.13;;;15.00;1.00;;;;;;5015258;28;20041;-39
2023/01/21 05:29:56;;;;;;;4.55;3.10;;;15.00;1.00;;;;;;5015083;28;20042;-40
2023/01/21 05:32:24;;;;;;;5.20;3.53;;;14.90;1.00;;;;;;5015029;28;20069;-39
2023/01/21 05:34:50;;;;;;;5.30;3.63;;;14.90;1.00;;;;;;5015021;28;20048;-39
2023/01/21 05:37:17;;;;;;;4.43;3.20;;;14.90;1.00;;;;;;5015498;28;20077;-39
2023/01/21 05:39:44;;;;;;;7.38;3.60;;;14.80;1.00;;;;;;5014738;28;20057;-38
2023/01/21 05:42:10;;;;;;;4.00;2.75;;;14.80;1.00;;;;;;5015004;28;20046;-38
2023/01/21 05:44:37;;;;;;;5.25;3.30;;;14.80;1.00;;;;;;5014847;28;20042;-38
2023/01/21 05:47:04;;;;;;;5.82;3.65;;;14.80;1.00;;;;;;5014772;28;20069;-39
2023/01/21 05:49:31;;;;;;;7.55;3.75;;;14.80;1.00;;;;;;5014773;28;20042;-39
2023/01/21 05:51:57;;;;;;;5.93;2.75;;;14.90;1.00;;;;;;5014715;28;20073;-39
2023/01/21 05:54:24;;;;;;;7.30;3.55;;;14.90;1.00;;;;;;5014103;28;20452;-39
2023/01/21 05:56:51;;;;;;;5.10;3.17;;;15.00;1.00;;;;;;5014580;28;20100;-39
2023/01/21 05:59:17;;;;;;;5.05;3.13;;;15.10;1.00;;;;;;5014652;28;20515;-40
2023/01/21 06:01:44;;;;;;;4.63;2.50;;;15.20;1.00;;;;;;5013804;28;20509;-39
2023/01/21 06:04:11;;;;;;;6.15;3.08;;;15.30;1.00;;;;;;5013884;28;20077;-39
2023/01/21 06:06:39;;;;;;;4.68;2.88;;;15.30;1.00;;;;;;5013849;28;20104;-39
2023/01/21 06:09:06;;;;;;;6.32;2.88;;;15.40;1.00;;;;;;5014135;28;20096;-40
2023/01/21 06:11:32;;;;;;;4.95;2.83;;;15.50;1.00;;;;;;5014021;28;20050;-40
2023/01/21 06:13:59;;;;;;;4.10;2.67;;;15.60;1.00;;;;;;5013415;28;20049;-40
2023/01/21 06:16:26;;;;;;;4.60;2.30;;;15.60;1.00;;;;;;5013977;28;20081;-40
2023/01/21 06:18:53;;;;;;;4.03;2.47;;;15.60;1.00;;;;;;5013950;28;20049;-40
2023/01/21 06:21:19;;;;;;;5.05;2.50;;;15.70;1.00;;;;;;5024422;23;20057;-37
2023/01/21 06:23:46;;;;;;;4.47;2.33;;;15.70;1.00;;;;;;5011898;28;20042;-38
2023/01/21 06:26:13;;;;;;;5.13;2.65;;;15.70;1.00;;;;;;5008968;28;20100;-38
2023/01/21 06:28:39;;;;;;;3.90;2.13;;;15.70;1.00;;;;;;5011409;28;20452;-38
2023/01/21 06:31:06;;;;;;;3.63;2.47;;;15.70;1.00;;;;;;5013855;28;20038;-38
2023/01/21 06:33:33;;;;;;;5.18;2.80;;;15.70;1.00;;;;;;5013607;28;20046;-38
2023/01/21 06:36:00;;;;;;;4.88;2.65;;;15.80;1.00;;;;;;5013972;28;20096;-38
2023/01/21 06:38:27;;;;;;;4.13;2.63;;;15.90;1.00;;;;;;5013777;28;20128;-38
2023/01/21 06:40:53;;;;;;;3.28;2.00;;;15.90;1.00;;;;;;5013887;28;20046;-38
2023/01/21 06:43:20;;;;;;;4.78;2.70;;;16.00;1.00;;;;;;5013467;28;20128;-38
2023/01/21 06:45:47;;;;;;;5.10;2.70;;;16.00;1.00;;;;;;5013572;28;20041;-38
2023/01/21 06:48:14;;;;;;;3.72;2.65;;;16.10;1.00;;;;;;5013670;28;20049;-37
2023/01/21 06:50:40;;;;;;;4.93;2.50;;;16.20;1.00;;;;;;5013703;28;20049;-38
2023/01/21 06:53:07;;;;;;;4.53;2.17;;;16.20;1.00;;;;;;5013294;28;20045;-37
2023/01/21 06:55:34;;;;;;;5.45;3.05;;;16.30;1.00;;;;;;5012415;28;20045;-37
2023/01/21 06:58:01;;;;;;;3.90;2.67;;;16.30;1.00;;;;;;5013688;28;20042;-38
2023/01/21 07:00:27;;;;;;;5.15;2.40;;;16.40;1.00;;;;;;5013340;28;20100;-38
2023/01/21 07:02:58;;;;;;;6.25;2.42;;;16.40;1.00;;;;;;5013081;28;20045;-38
2023/01/21 07:05:26;;;;;;;2.78;1.88;;;16.50;1.00;;;;;;5012966;28;20038;-38
2023/01/21 07:07:54;;;;;;;4.10;2.45;;;16.60;1.00;;;;;;5012793;28;20045;-39
2023/01/21 07:10:22;;;;;;;4.38;2.03;;;16.60;1.00;;;;;;5013451;28;20119;-38
2023/01/21 07:12:49;;;;;;;7.05;3.33;;;16.70;1.00;;;;;;5012907;28;20052;-39
2023/01/21 07:15:16;;;;;;;4.57;2.42;;;16.70;1.00;;;;;;5012788;28;20129;-38
2023/01/21 07:17:43;;;;;;;3.70;2.42;;;16.70;1.00;;;;;;5013189;28;20054;-38
2023/01/21 07:20:13;;;;;;;5.10;2.60;;;16.80;1.00;;;;;;5013012;28;20092;-39
2023/01/21 07:22:40;;;;;;;5.30;2.75;;;16.80;1.00;;;;;;5012811;28;20049;-37
2023/01/21 07:25:07;;;;;;;3.08;2.15;;;16.80;1.00;;;;;;5013078;28;20046;-37
2023/01/21 07:27:34;;;;;;;4.60;2.60;;;16.80;1.00;;;;;;5013147;28;20436;-38
2023/01/21 07:30:00;;;;;;;3.63;2.50;;;16.90;1.00;;;;;;5012906;28;20050;-37
2023/01/21 07:32:27;;;;;;;10.63;3.25;;;16.90;1.00;;;;;;5011837;28;20054;-38
2023/01/21 07:34:54;;;;;;;7.03;2.70;;;16.90;1.00;;;;;;5009949;28;20052;-38
2023/01/21 07:37:21;;;;;;;7.25;3.13;;;17.00;1.00;;;;;;5011456;28;20077;-39
2023/01/21 07:39:47;;;;;;;4.20;2.30;;;17.00;1.00;;;;;;5012705;28;20409;-38
2023/01/21 07:42:14;;;;;;;10.65;3.00;;;17.00;1.00;;;;;;5007204;28;20061;-38
2023/01/21 07:44:41;;;;;;;5.18;2.90;;;17.00;1.00;;;;;;5008832;28;20056;-37
2023/01/21 07:47:09;;;;;;;3.67;2.35;;;17.00;1.00;;;;;;5006943;28;20038;-38
2023/01/21 07:49:36;;;;;;;4.90;2.85;;;17.00;1.00;;;;;;5004390;28;20482;-39
2023/01/21 07:52:03;;;;;;;5.20;2.63;;;16.90;1.00;;;;;;5008680;28;20048;-38
2023/01/21 07:54:30;;;;;;;7.47;3.33;;;16.90;1.00;;;;;;5012194;28;20433;-38
2023/01/21 07:56:57;;;;;;;5.18;3.00;;;16.90;1.00;;;;;;5012376;28;20050;-38
2023/01/21 07:59:23;;;;;;;6.47;3.55;;;16.80;1.00;;;;;;5011776;28;20042;-38
2023/01/21 08:01:50;;;;;;;6.00;3.00;;;16.80;1.00;;;;;;5010803;28;20121;-38
2023/01/21 08:04:17;;;;;;;5.20;2.80;;;16.80;1.00;;;;;;5010401;28;20038;-39
2023/01/21 08:06:44;;;;;;;8.05;3.55;;;16.70;1.00;;;;;;5011755;28;20053;-39
2023/01/21 08:09:10;;;;;;;4.97;3.15;;;16.70;1.00;;;;;;5010763;28;20100;-38
2023/01/21 08:11:37;;;;;;;11.38;3.03;;;16.60;1.00;;;;;;5011204;28;20041;-38
2023/01/21 08:14:04;;;;;;;17.95;8.52;;;16.50;1.00;;;;;;5004736;28;20498;-38
2023/01/21 08:16:31;;;;;;;15.45;7.90;;;16.50;1.00;;;;;;5005868;28;20050;-38
2023/01/21 08:18:58;;;;;;;14.18;5.88;;;16.40;1.00;;;;;;5011835;28;20502;-38
2023/01/21 08:21:25;;;;;;;14.65;6.13;;;16.30;1.00;;;;;;5011918;28;20100;-38
2023/01/21 08:23:51;;;;;;;11.52;5.93;;;16.30;1.00;;;;;;5010500;28;20041;-38
2023/01/21 08:26:18;;;;;;;10.77;4.95;;;16.20;1.00;;;;;;5012133;28;20041;-38
2023/01/21 08:28:45;;;;;;;10.02;4.80;;;16.20;1.00;;;;;;5011923;28;20069;-38
2023/01/21 08:31:12;;;;;;;10.27;5.63;;;16.20;1.00;;;;;;5011957;28;20046;-39
2023/01/21 08:33:39;;;;;;;7.45;4.47;;;16.20;1.00;;;;;;5011960;28;20042;-38
2023/01/21 08:36:07;;;;;;;7.30;4.50;;;16.20;1.00;;;;;;5012123;28;20497;-39
2023/01/21 08:38:34;;;;;;;7.85;4.65;;;16.30;1.00;;;;;;5011970;28;20046;-39
2023/01/21 08:41:01;;;;;;;7.82;4.25;;;16.30;1.00;;;;;;5011905;28;20054;-39
2023/01/21 08:43:28;;;;;;;9.55;4.72;;;16.40;1.00;;;;;;5011249;28;20041;-39
2023/01/21 08:45:56;;;;;;;7.68;4.40;;;16.40;1.00;;;;;;5012063;28;20038;-39
2023/01/21 08:48:23;;;;;;;10.15;3.80;;;16.40;1.00;;;;;;5011769;28;20485;-38
2023/01/21 08:50:49;;;;;;;9.80;4.30;;;16.50;1.00;;;;;;5011728;28;20049;-38
2023/01/21 08:53:16;;;;;;;6.03;3.67;;;16.50;1.00;;;;;;5011407;28;20046;-38
2023/01/21 08:55:43;;;;;;;7.50;4.45;;;16.60;1.00;;;;;;5011670;28;20466;-38
2023/01/21 08:58:10;;;;;;;9.93;4.03;;;16.70;1.00;;;;;;5011546;28;20119;-37
2023/01/21 09:00:37;;;;;;;5.55;4.03;;;16.70;1.00;;;;;;5011613;28;20060;-38
2023/01/21 09:03:04;;;;;;;5.97;3.00;;;16.70;1.00;;;;;;5011434;28;20112;-38
2023/01/21 09:05:31;;;;;;;6.40;3.92;;;16.80;1.00;;;;;;5011720;28;20096;-38
2023/01/21 09:07:58;;;;;;;7.22;3.58;;;16.80;1.00;;;;;;5011732;28;20050;-39
2023/01/21 09:13:10;;;;;;;5.88;3.50;;;16.80;1.00;;;;;;5011216;28;20064;-38
2023/01/21 09:15:43;;;;;;;5.68;3.28;;;16.80;1.00;;;;;;5011910;28;20061;-38
2023/01/21 09:18:10;;;;;;;6.97;3.10;;;16.80;1.00;;;;;;5011650;28;20100;-38
2023/01/21 09:20:38;;;;;;;5.20;2.95;;;16.80;1.00;;;;;;5010362;28;20155;-39
2023/01/21 09:23:25;;;;;;;5.68;3.25;;;16.80;1.00;;;;;;5011143;28;20042;-38
2023/01/21 09:26:01;;;;;;;5.75;3.67;;;16.80;1.00;;;;;;5011579;28;20034;-38
2023/01/21 09:28:28;;;;;;;4.93;3.28;;;16.80;1.00;;;;;;5011332;28;20509;-38
2023/01/21 09:30:57;;;;;;;5.90;3.30;;;16.70;1.00;;;;;;5014759;28;20069;-39
2023/01/21 09:33:26;;;;;;;5.72;2.80;;;16.70;1.00;;;;;;5015135;28;20045;-38
2023/01/21 09:35:58;;;;;;;6.20;3.28;;;16.70;1.00;;;;;;5015124;28;20121;-39
2023/01/21 09:38:25;;;;;;;5.70;3.45;;;16.60;1.00;;;;;;5014994;28;20555;-38
2023/01/21 09:40:53;;;;;;;5.20;2.72;;;16.60;1.00;;;;;;5014909;28;20354;-38
2023/01/21 09:43:30;;;;;;;6.18;2.88;;;16.60;1.00;;;;;;5014638;28;20042;-38
2023/01/21 09:46:01;;;;;;;5.40;3.53;;;16.50;1.00;;;;;;5015031;28;20056;-38
2023/01/21 09:48:40;;;;;;;5.00;3.33;;;16.40;1.00;;;;;;5015087;28;20066;-39
2023/01/21 09:51:24;;;;;;;5.15;2.65;;;16.40;1.00;;;;;;5014674;28;20046;-38
2023/01/21 09:53:57;;;;;;;6.40;3.83;;;16.40;1.00;;;;;;5014394;28;20130;-38
2023/01/21 09:56:38;;;;;;;5.60;3.65;;;16.30;1.00;;;;;;5014502;28;20045;-38
2023/01/21 09:59:16;;;;;;;7.40;3.75;;;16.30;1.00;;;;;;5014681;28;20046;-38
2023/01/21 10:01:47;;;;;;;7.40;3.58;;;16.20;1.00;;;;;;5014511;28;20049;-38
2023/01/21 10:04:35;;;;;;;6.40;3.75;;;16.20;1.00;;;;;;5014192;28;20050;-39
2023/01/21 10:07:14;;;;;;;5.28;3.83;;;16.20;1.00;;;;;;5014592;28;20494;-39
2023/01/21 10:09:41;;;;;;;7.72;3.90;;;16.10;1.00;;;;;;5014490;28;20044;-38
2023/01/21 10:12:38;;;;;;;6.63;3.53;;;16.10;1.00;;;;;;5014343;28;20073;-38
2023/01/21 10:15:23;;;;;;;7.18;3.75;;;16.10;1.00;;;;;;5014174;28;20493;-39
2023/01/21 10:18:12;;;;;;;5.47;3.53;;;16.20;1.00;;;;;;5014258;28;20134;-39
2023/01/21 10:20:51;;;;;;;6.45;3.08;;;16.30;1.00;;;;;;5014167;28;20136;-39
2023/01/21 10:23:30;;;;;;;5.85;3.20;;;16.30;1.00;;;;;;5013756;28;20556;-39
2023/01/21 10:26:06;;;;;;;5.28;3.15;;;16.40;1.00;;;;;;5014139;28;20559;-39
2023/01/21 10:28:47;;;;;;;5.50;2.92;;;16.40;1.00;;;;;;5013025;28;20053;-38
2023/01/21 10:31:29;;;;;;;6.28;3.10;;;16.50;1.00;;;;;;5013810;28;20124;-38
2023/01/21 10:33:57;;;;;;;6.03;3.08;;;16.60;1.00;;;;;;5013499;28;20049;-38
2023/01/21 10:36:36;;;;;;;6.35;3.38;;;16.60;1.00;;;;;;5013742;28;20057;-39
2023/01/21 10:39:23;;;;;;;6.03;3.47;;;16.70;1.00;;;;;;5013918;28;20053;-37
2023/01/21 10:42:21;;;;;;;5.22;2.67;;;16.70;1.00;;;;;;5012551;28;20121;-37
2023/01/21 10:45:07;;;;;;;4.25;2.63;;;16.80;1.00;;;;;;5013685;28;20046;-38
2023/01/21 10:48:12;;;;;;;4.95;2.88;;;16.80;1.00;;;;;;5014036;28;20398;-39
2023/01/21 10:51:14;;;;;;;5.35;4.05;;;16.90;1.00;;;;;;5013449;28;20038;-39
2023/01/21 10:53:50;;;;;;;5.28;3.85;;;16.90;1.00;;;;;;5013377;28;20038;-39
2023/01/21 10:56:51;;;;;;;4.45;2.67;;;16.90;1.00;;;;;;4996140;28;20061;-39
2023/01/21 10:59:26;;;;;;;4.38;2.80;;;16.90;1.00;;;;;;5012296;28;20068;-39
2023/01/21 11:02:26;;;;;;;5.22;2.95;;;17.00;1.00;;;;;;5013393;28;20056;-39
2023/01/21 11:04:57;;;;;;;4.68;2.78;;;17.00;1.00;;;;;;5004771;28;20112;-39
2023/01/21 11:07:25;;;;;;;5.28;3.20;;;17.00;1.00;;;;;;5012104;28;21123;-38
2023/01/21 11:09:52;;;;;;;6.28;3.05;;;17.00;1.00;;;;;;5012241;28;20057;-37
2023/01/21 11:12:20;;;;;;;4.47;3.25;;;17.00;1.00;;;;;;5013072;28;20485;-38
2023/01/21 11:14:54;;;;;;;5.03;2.92;;;17.00;1.00;;;;;;5013045;28;20050;-38
2023/01/21 11:17:35;;;;;;;4.85;3.55;;;17.00;1.00;;;;;;5013103;28;20046;-39
2023/01/21 11:20:32;;;;;;;4.20;2.88;;;17.00;1.00;;;;;;5013037;28;20058;-39
2023/01/21 11:23:03;;;;;;;4.32;2.65;;;17.00;1.00;;;;;;5010924;28;20046;-39
2023/01/21 11:25:37;;;;;;;5.20;2.80;;;16.90;1.00;;;;;;5012997;28;20046;-39
2023/01/21 11:28:04;;;;;;;6.00;3.47;;;16.90;1.00;;;;;;5013049;28;20128;-39
2023/01/21 11:30:37;;;;;;;6.32;3.80;;;16.90;1.00;;;;;;5012861;28;20151;-39
2023/01/21 11:33:25;;;;;;;4.35;2.80;;;16.90;1.00;;;;;;5012570;28;20049;-38
2023/01/21 11:35:57;;;;;;;6.32;3.90;;;16.80;1.00;;;;;;5012906;28;20046;-38
2023/01/21 11:38:32;;;;;;;6.07;3.58;;;16.80;1.00;;;;;;5012654;28;20073;-38
2023/01/21 11:41:04;;;;;;;4.25;2.90;;;16.80;1.00;;;;;;5012755;28;20046;-38
2023/01/21 11:43:44;;;;;;;6.22;3.22;;;16.80;1.00;;;;;;5012453;28;20402;-38
2023/01/21 11:46:39;;;;;;;6.10;3.50;;;16.70;1.00;;;;;;5012663;28;20093;-38
2023/01/21 11:49:06;;;;;;;4.93;3.25;;;16.70;1.00;;;;;;5012754;28;20041;-39
2023/01/21 11:51:37;;;;;;;5.60;3.13;;;16.70;1.00;;;;;;5012629;28;20448;-39
2023/01/21 11:54:19;;;;;;;4.88;2.55;;;16.60;1.00;;;;;;5011900;28;20049;-38
2023/01/21 11:56:59;;;;;;;3.67;2.85;;;16.60;1.00;;;;;;5011263;28;20494;-38
2023/01/21 11:59:38;;;;;;;4.38;2.90;;;16.50;1.00;;;;;;5012498;28;20052;-39
2023/01/21 12:02:22;;;;;;;7.05;3.15;;;16.60;1.00;;;;;;5012523;28;20050;-39
2023/01/21 12:05:00;;;;;;;6.03;2.72;;;16.50;1.00;;;;;;5012165;28;20042;-39
2023/01/21 12:07:38;;;;;;;5.65;2.90;;;16.40;1.00;;;;;;5012456;28;20056;-38
2023/01/21 12:10:11;;;;;;;4.63;3.05;;;16.40;1.00;;;;;;5012226;28;20046;-39
2023/01/21 12:12:58;;;;;;;4.20;2.93;;;16.40;1.00;;;;;;5011941;28;20556;-39
2023/01/21 12:15:48;;;;;;;5.35;2.90;;;16.40;1.00;;;;;;5011137;28;20283;-39
2023/01/21 12:18:46;;;;;;;5.18;3.58;;;16.30;1.00;;;;;;4991759;28;20753;-39
2023/01/21 12:21:27;;;;;;;5.60;2.40;;;16.30;1.00;;;;;;5022728;23;20042;-39
2023/01/21 12:24:33;;;;;;;3.53;2.42;;;16.20;1.00;;;;;;5011148;28;20045;-39
2023/01/21 12:27:27;;;;;;;6.43;2.88;;;16.20;1.00;;;;;;5010734;28;20517;-39
2023/01/21 12:30:19;;;;;;;4.50;3.47;;;16.10;1.00;;;;;;5012053;28;20426;-39
2023/01/21 12:32:52;;;;;;;5.75;2.97;;;16.00;1.00;;;;;;5010321;28;20042;-39
2023/01/21 12:35:34;;;;;;;4.95;3.03;;;16.00;1.00;;;;;;5012129;28;20162;-39
2023/01/21 12:38:23;;;;;;;5.78;3.10;;;16.00;1.00;;;;;;5012147;28;20125;-39
2023/01/21 12:41:38;;;;;;;5.50;3.60;;;16.00;1.00;;;;;;5011861;28;20038;-39
2023/01/21 12:44:12;;;;;;;4.80;2.90;;;15.90;1.00;;;;;;4984088;28;20513;-39
2023/01/21 12:47:14;;;;;;;6.82;3.10;;;15.90;1.00;;;;;;5011969;28;20053;-39
2023/01/21 12:49:48;;;;;;;4.30;2.92;;;15.90;1.00;;;;;;5004071;28;20074;-39
2023/01/21 12:52:21;;;;;;;;;;;15.80;1.00;;;;;;5011992;28;20121;-38
2023/01/21 12:55:05;;;;;;;3.90;2.53;;;15.80;1.00;;;;;;5011698;28;19921;-38
2023/01/21 12:58:05;;;;;;;5.82;3.40;;;15.80;1.00;;;;;;5010528;28;20111;-39
2023/01/21 13:00:36;;;;;;;4.85;2.75;;;15.70;1.00;;;;;;5011563;28;20054;-38
2023/01/21 13:03:25;;;;;;;4.35;2.85;;;15.70;1.00;;;;;;5011288;28;20053;-39
2023/01/21 13:06:08;;;;;;;4.18;2.67;;;15.70;1.00;;;;;;5014494;28;20137;-39
2023/01/21 13:08:58;;;;;;;5.63;3.13;;;15.70;1.00;;;;;;5015551;28;20105;-39
2023/01/21 13:11:43;;;;;;;4.68;2.70;;;15.60;1.00;;;;;;5015370;28;20038;-40
2023/01/21 13:14:33;;;;;;;4.53;2.75;;;15.60;1.00;;;;;;5015044;28;20497;-39
2023/01/21 13:17:12;;;;;;;5.97;2.92;;;15.60;1.00;;;;;;5005205;28;20420;-39
2023/01/21 13:19:39;;;;;;;3.80;2.63;;;15.60;1.00;;;;;;5015339;28;20041;-39
2023/01/21 13:22:27;;;;;;;4.10;2.58;;;15.50;1.00;;;;;;5014943;28;20042;-39
2023/01/21 13:25:15;;;;;;;4.50;2.88;;;15.50;1.00;;;;;;5015307;28;20050;-39
2023/01/21 13:27:59;;;;;;;6.22;3.22;;;15.50;1.00;;;;;;5014906;28;20034;-39
2023/01/21 13:30:41;;;;;;;5.30;2.38;;;15.40;1.00;;;;;;5014971;28;20047;-39
2023/01/21 13:33:14;;;;;;;4.30;2.97;;;15.40;1.00;;;;;;5014715;28;20177;-40